Time;durP1;ratioP1;P1;durP2;ratioP2;P2;SDS_P1;SDS_P2;PMS_P1;PMS_P2;Temp;Humidity;BMP_temperature;BMP_pressure;BME280_temperature;BME280_humidity;BME280_pressure;Samples;Min_cycle;Max_cycle;Signal;HPM_P1;HPM_P2
2023/04/06 00:02:17;;;;;;;0.30;0.30;;;;;;;6.48;80.59;96536.28;5007018;28;20140;-61
2023/04/06 00:04:44;;;;;;;0.30;0.30;;;;;;;6.39;80.86;96555.69;5006909;28;20068;-61
2023/04/06 00:07:11;;;;;;;0.30;0.30;;;;;;;6.25;81.63;96560.84;5007059;28;20089;-59
2023/04/06 00:09:37;;;;;;;0.30;0.30;;;;;;;6.03;81.18;96553.19;5006755;28;20554;-61
2023/04/06 00:12:04;;;;;;;0.30;0.30;;;;;;;5.89;79.89;96564.63;5007290;28;20132;-59
2023/04/06 00:14:31;;;;;;;0.30;0.30;;;;;;;5.70;78.91;96552.66;5037454;28;20085;-59
2023/04/06 00:16:57;;;;;;;0.30;0.30;;;;;;;5.54;79.46;96562.81;5027097;28;20077;-59
2023/04/06 00:19:24;;;;;;;0.30;0.30;;;;;;;4.61;79.15;96415.84;5026589;28;20148;-59
2023/04/06 00:21:51;;;;;;;0.30;0.30;;;;;;;5.51;79.76;96541.53;5025160;28;20053;-59
2023/04/06 00:24:18;;;;;;;0.30;0.30;;;;;;;5.52;78.74;96554.09;5025128;28;20455;-59
2023/04/06 00:26:44;;;;;;;0.30;0.30;;;;;;;5.39;79.03;96538.84;5026252;28;20103;-60
2023/04/06 00:29:11;;;;;;;0.30;0.30;;;;;;;5.25;78.78;96539.22;5026470;28;20093;-60
2023/04/06 00:31:38;;;;;;;0.30;0.30;;;;;;;5.19;79.83;96528.81;5026281;28;20053;-59
2023/04/06 00:34:06;;;;;;;0.30;0.30;;;;;;;5.20;79.85;96533.19;5024743;28;20051;-59
2023/04/06 00:36:32;;;;;;;0.25;0.25;;;;;;;5.09;80.41;96543.06;5026185;28;20517;-59
2023/04/06 00:38:59;;;;;;;0.30;0.30;;;;;;;5.07;80.50;96534.38;5026305;28;20542;-60
2023/04/06 00:41:26;;;;;;;0.25;0.25;;;;;;;5.00;81.23;96534.94;5026398;28;20053;-60
2023/04/06 00:43:54;;;;;;;0.30;0.30;;;;;;;4.91;81.93;96538.97;5026355;28;20514;-60
2023/04/06 00:46:21;;;;;;;0.30;0.30;;;;;;;4.82;82.50;96525.38;5026034;28;20147;-59
2023/04/06 00:48:47;;;;;;;0.30;0.30;;;;;;;4.91;82.91;96528.00;5025928;28;20053;-61
2023/04/06 00:51:14;;;;;;;0.30;0.30;;;;;;;4.85;87.22;96523.91;5024709;28;20049;-60
2023/04/06 00:53:41;;;;;;;0.30;0.30;;;;;;;4.81;90.07;96540.25;5026267;28;20049;-59
2023/04/06 00:56:09;;;;;;;0.28;0.28;;;;;;;4.85;91.43;96529.38;5025863;28;20123;-60
2023/04/06 00:58:40;;;;;;;0.30;0.30;;;;;;;4.69;91.67;96510.88;5025955;28;20425;-60
2023/04/06 01:01:07;;;;;;;0.30;0.30;;;;;;;4.69;93.03;96521.84;5025483;28;20065;-60
2023/04/06 01:03:34;;;;;;;0.30;0.30;;;;;;;3.04;92.06;96258.28;5026262;28;20045;-60
2023/04/06 01:06:00;;;;;;;0.20;0.20;;;;;;;4.66;91.60;96495.13;5024378;28;20057;-60
2023/04/06 01:08:27;;;;;;;0.30;0.30;;;;;;;4.60;91.76;96499.25;5026207;28;20155;-60
2023/04/06 01:10:54;;;;;;;0.20;0.20;;;;;;;4.76;91.69;96531.47;5025910;28;20060;-61
2023/04/06 01:13:21;;;;;;;0.30;0.30;;;;;;;4.81;92.45;96512.81;5024019;28;20065;-59
2023/04/06 01:15:48;;;;;;;0.30;0.30;;;;;;;4.35;92.99;96447.53;5025392;28;20050;-60
2023/04/06 01:18:15;;;;;;;0.30;0.30;;;;;;;4.36;91.91;96447.19;5024205;28;20049;-59
2023/04/06 01:20:41;;;;;;;0.30;0.30;;;;;;;4.68;91.96;96496.75;5025479;28;20095;-60
2023/04/06 01:23:08;;;;;;;0.20;0.20;;;;;;;4.64;93.00;96491.94;5025240;28;20049;-59
2023/04/06 01:25:35;;;;;;;0.30;0.30;;;;;;;4.49;93.17;96484.41;5025095;28;20115;-60
2023/04/06 01:28:01;;;;;;;0.30;0.30;;;;;;;4.23;93.41;96445.63;5025275;28;20483;-61
2023/04/06 01:30:28;;;;;;;0.30;0.30;;;;;;;4.50;93.44;96491.47;5025100;28;20059;-60
2023/04/06 01:32:55;;;;;;;0.30;0.30;;;;;;;4.44;93.57;96486.59;5023964;28;20049;-60
2023/04/06 01:35:22;;;;;;;0.28;0.28;;;;;;;4.52;92.76;96482.94;5023588;28;20460;-61
2023/04/06 01:37:49;;;;;;;0.30;0.30;;;;;;;3.91;92.34;96427.34;5025207;28;20547;-59
2023/04/06 01:40:15;;;;;;;0.30;0.30;;;;;;;4.45;93.71;96472.53;5023768;28;20067;-60
2023/04/06 01:42:42;;;;;;;0.20;0.20;;;;;;;4.56;93.56;96481.91;5025631;28;20052;-60
2023/04/06 01:45:09;;;;;;;0.28;0.28;;;;;;;4.44;91.42;96470.94;5023599;28;20045;-59
2023/04/06 01:47:36;;;;;;;0.30;0.30;;;;;;;4.44;90.16;96459.97;5025354;28;20570;-59
2023/04/06 01:50:06;;;;;;;0.30;0.30;;;;;;;4.60;91.73;96480.06;5024813;28;20045;-61
2023/04/06 01:52:33;;;;;;;0.30;0.30;;;;;;;4.47;92.04;96478.47;5025371;28;20045;-60
2023/04/06 01:54:59;;;;;;;0.28;0.28;;;;;;;4.25;92.61;96473.47;5006142;28;20092;-60
2023/04/06 01:57:26;;;;;;;0.30;0.30;;;;;;;4.03;92.33;96432.03;5005361;28;20058;-60
2023/04/06 01:59:53;;;;;;;0.30;0.30;;;;;;;4.35;92.48;96483.97;5003965;28;20089;-61
2023/04/06 02:02:20;;;;;;;0.30;0.30;;;;;;;4.15;92.52;96479.44;5003619;28;20100;-59
2023/04/06 02:04:46;;;;;;;0.30;0.30;;;;;;;4.20;91.96;96487.41;5005033;28;20054;-60
2023/04/06 02:07:13;;;;;;;0.30;0.30;;;;;;;4.34;91.56;96482.38;5004361;28;20173;-60
2023/04/06 02:09:40;;;;;;;0.20;0.20;;;;;;;4.24;92.00;96482.84;5005197;28;20085;-59
2023/04/06 02:12:06;;;;;;;0.25;0.25;;;;;;;4.35;90.77;96483.16;5005024;28;20449;-60
2023/04/06 02:14:33;;;;;;;0.28;0.28;;;;;;;4.21;91.47;96479.97;5020168;28;20129;-59
2023/04/06 02:17:00;;;;;;;0.30;0.30;;;;;;;3.65;92.91;96393.25;5024827;28;20049;-61
2023/04/06 02:19:26;;;;;;;0.30;0.30;;;;;;;4.23;91.21;96480.44;5022972;28;20063;-60
2023/04/06 02:21:53;;;;;;;0.30;0.30;;;;;;;3.84;92.22;96429.84;5024865;28;20589;-60
2023/04/06 02:24:20;;;;;;;0.30;0.30;;;;;;;3.86;91.89;96394.72;5024210;28;20095;-60
2023/04/06 02:26:46;;;;;;;0.30;0.30;;;;;;;4.49;90.47;96478.13;5024537;28;20096;-60
2023/04/06 02:29:13;;;;;;;0.22;0.22;;;;;;;4.47;89.85;96481.22;5024601;28;20049;-60
2023/04/06 02:31:40;;;;;;;0.20;0.20;;;;;;;4.55;88.49;96485.78;5024793;28;20190;-59
2023/04/06 02:34:07;;;;;;;0.28;0.28;;;;;;;4.50;89.19;96480.50;5024088;28;20103;-60
2023/04/06 02:36:34;;;;;;;0.20;0.20;;;;;;;4.03;88.00;96415.59;5022598;28;20435;-59
2023/04/06 02:39:01;;;;;;;0.30;0.30;;;;;;;4.29;86.36;96474.38;5024055;28;20050;-59
2023/04/06 02:41:27;;;;;;;0.30;0.30;;;;;;;4.18;86.80;96484.22;5023895;28;20056;-60
2023/04/06 02:43:54;;;;;;;0.22;0.22;;;;;;;4.22;86.48;96463.19;5024198;28;20077;-60
2023/04/06 02:46:21;;;;;;;0.30;0.30;;;;;;;4.37;85.86;96484.44;5024215;28;20053;-60
2023/04/06 02:48:47;;;;;;;0.30;0.30;;;;;;;4.27;85.76;96486.81;5024072;28;20136;-59
2023/04/06 02:51:14;;;;;;;0.25;0.25;;;;;;;4.26;86.92;96494.25;5023904;28;20053;-60
2023/04/06 02:53:41;;;;;;;0.25;0.25;;;;;;;4.33;85.99;96491.72;5023597;28;20586;-60
2023/04/06 02:56:07;;;;;;;0.30;0.30;;;;;;;4.34;86.80;96492.53;5022606;28;20496;-59
2023/04/06 02:58:34;;;;;;;0.30;0.30;;;;;;;4.43;87.77;96491.28;5022477;28;20060;-60
2023/04/06 03:01:01;;;;;;;0.25;0.25;;;;;;;4.39;88.59;96490.34;5023556;28;20057;-59
2023/04/06 03:03:28;;;;;;;0.30;0.30;;;;;;;4.32;90.18;96484.66;5023949;28;20514;-60
2023/04/06 03:05:56;;;;;;;0.30;0.30;;;;;;;4.41;90.26;96492.78;5023733;28;20045;-61
2023/04/06 03:08:22;;;;;;;0.30;0.30;;;;;;;4.41;90.79;96496.28;5022451;28;20053;-59
2023/04/06 03:10:49;;;;;;;0.30;0.30;;;;;;;3.98;90.01;96435.78;5012382;28;20053;-60
2023/04/06 03:13:16;;;;;;;0.30;0.30;;;;;;;4.13;90.68;96473.47;4984641;28;20156;-60
2023/04/06 03:15:42;;;;;;;0.30;0.30;;;;;;;4.25;90.86;96500.88;4984597;28;20140;-60
2023/04/06 03:18:09;;;;;;;0.28;0.28;;;;;;;4.13;90.45;96498.13;4986210;28;20050;-61
2023/04/06 03:20:36;;;;;;;0.30;0.30;;;;;;;4.08;90.58;96490.13;4988398;28;20056;-59
2023/04/06 03:23:02;;;;;;;0.30;0.30;;;;;;;4.12;89.32;96507.53;4988542;28;20050;-60
2023/04/06 03:25:30;;;;;;;0.30;0.30;;;;;;;4.09;88.57;96504.66;4988431;28;20078;-60
2023/04/06 03:27:56;;;;;;;0.30;0.30;;;;;;;3.93;89.15;96499.06;4988532;28;20140;-61
2023/04/06 03:30:23;;;;;;;0.20;0.20;;;;;;;3.85;90.60;96491.72;4988066;28;20575;-60
2023/04/06 03:32:50;;;;;;;0.25;0.25;;;;;;;2.96;91.65;96344.00;4988658;28;20085;-61
2023/04/06 03:35:16;;;;;;;0.30;0.30;;;;;;;3.61;92.32;96453.34;4988281;28;20963;-60
2023/04/06 03:37:43;;;;;;;0.20;0.20;;;;;;;4.05;90.05;96507.28;4988478;28;20066;-60
2023/04/06 03:40:10;;;;;;;0.30;0.30;;;;;;;3.92;91.03;96497.44;4988165;28;20050;-59
2023/04/06 03:42:37;;;;;;;0.30;0.30;;;;;;;3.88;91.78;96502.00;4988414;28;20488;-60
2023/04/06 03:45:04;;;;;;;0.30;0.30;;;;;;;3.98;92.86;96501.53;4986746;28;20081;-60
2023/04/06 03:47:30;;;;;;;0.30;0.30;;;;;;;3.95;92.34;96501.44;4986803;28;20065;-61
2023/04/06 03:49:57;;;;;;;0.30;0.30;;;;;;;3.95;92.24;96502.22;4988266;28;20109;-59
2023/04/06 03:52:24;;;;;;;0.20;0.20;;;;;;;2.09;90.70;96243.28;4986466;28;20116;-59
2023/04/06 03:54:51;;;;;;;0.25;0.25;;;;;;;4.05;90.25;96499.06;4986240;28;20050;-61
2023/04/06 03:57:17;;;;;;;0.20;0.20;;;;;;;3.87;90.62;96500.38;4988123;28;20078;-60
2023/04/06 03:59:44;;;;;;;0.20;0.20;;;;;;;3.86;91.57;96498.81;4987980;28;20073;-61
2023/04/06 04:02:11;;;;;;;0.30;0.30;;;;;;;3.88;91.90;96480.09;4970048;28;20129;-62
2023/04/06 04:04:38;;;;;;;0.30;0.30;;;;;;;3.64;91.65;96468.28;4968548;28;20051;-60
2023/04/06 04:07:05;;;;;;;0.20;0.20;;;;;;;3.96;90.67;96503.03;4968515;28;20057;-59
2023/04/06 04:09:31;;;;;;;0.30;0.30;;;;;;;3.90;89.59;96505.22;4968258;28;20054;-61
2023/04/06 04:11:58;;;;;;;0.30;0.30;;;;;;;3.98;91.05;96496.06;4968195;28;20090;-60
2023/04/06 04:14:25;;;;;;;0.20;0.20;;;;;;;4.02;90.94;96502.47;4994219;28;20109;-60
2023/04/06 04:16:52;;;;;;;0.30;0.30;;;;;;;4.16;91.61;96497.47;4987829;28;20050;-61
2023/04/06 04:19:18;;;;;;;0.30;0.30;;;;;;;3.86;92.08;96465.13;4987508;28;20054;-59
2023/04/06 04:21:46;;;;;;;0.30;0.30;;;;;;;4.14;91.08;96505.22;4986923;28;20507;-60
2023/04/06 04:24:14;;;;;;;0.30;0.30;;;;;;;4.02;90.07;96502.47;4986792;28;20132;-59
2023/04/06 04:26:40;;;;;;;0.30;0.30;;;;;;;4.09;91.13;96501.91;4986502;28;20141;-61
2023/04/06 04:29:07;;;;;;;0.20;0.20;;;;;;;3.61;89.38;96452.53;4985991;28;20054;-59
2023/04/06 04:31:34;;;;;;;0.30;0.30;;;;;;;3.73;90.02;96450.63;4984573;28;20057;-59
2023/04/06 04:34:01;;;;;;;0.25;0.25;;;;;;;3.87;90.27;96464.78;4984930;28;20050;-59
2023/04/06 04:36:28;;;;;;;0.30;0.30;;;;;;;4.20;89.20;96503.88;4987190;28;20050;-60
2023/04/06 04:38:54;;;;;;;0.30;0.30;;;;;;;4.35;89.28;96499.63;4987423;28;20050;-59
2023/04/06 04:41:21;;;;;;;0.30;0.30;;;;;;;4.13;89.06;96480.88;4987028;28;20095;-60
2023/04/06 04:43:48;;;;;;;0.30;0.30;;;;;;;4.38;88.88;96504.41;4987197;28;20136;-59
2023/04/06 04:46:14;;;;;;;0.30;0.30;;;;;;;4.35;88.18;96500.41;4986855;28;20100;-60
2023/04/06 04:48:41;;;;;;;0.30;0.30;;;;;;;4.30;88.74;96508.88;4986926;28;20169;-59
2023/04/06 04:51:08;;;;;;;0.22;0.22;;;;;;;4.32;88.20;96509.34;4987061;28;20050;-60
2023/04/06 04:53:34;;;;;;;0.30;0.30;;;;;;;4.48;88.95;96510.25;4986510;28;20161;-58
2023/04/06 04:56:01;;;;;;;0.28;0.28;;;;;;;4.33;87.94;96469.81;4986778;28;20058;-60
2023/04/06 04:58:28;;;;;;;0.30;0.30;;;;;;;4.65;87.63;96510.00;4986600;28;20521;-61
2023/04/06 05:00:54;;;;;;;0.30;0.30;;;;;;;4.48;86.76;96507.50;4986529;28;20097;-59
2023/04/06 05:03:24;;;;;;;0.30;0.30;;;;;;;2.24;85.54;96125.19;4986860;28;20050;-60
2023/04/06 05:05:51;;;;;;;0.30;0.30;;;;;;;4.37;84.65;96470.72;4987003;28;20056;-60
2023/04/06 05:08:18;;;;;;;0.30;0.30;;;;;;;4.67;85.11;96512.38;4986511;28;20062;-60
2023/04/06 05:10:45;;;;;;;0.30;0.30;;;;;;;4.82;85.66;96511.66;4986889;28;20050;-60
2023/04/06 05:13:12;;;;;;;0.30;0.30;;;;;;;4.33;85.00;96428.69;4986805;28;20054;-60
2023/04/06 05:15:39;;;;;;;0.30;0.30;;;;;;;4.62;84.79;96474.22;4986623;28;20795;-59
2023/04/06 05:18:07;;;;;;;0.30;0.30;;;;;;;4.52;85.16;96423.38;4985604;28;20116;-59
2023/04/06 05:20:35;;;;;;;0.30;0.30;;;;;;;4.98;84.89;96512.53;4976563;28;20085;-60
2023/04/06 05:23:02;;;;;;;0.20;0.20;;;;;;;4.69;84.90;96453.28;4966853;28;20113;-59
2023/04/06 05:25:28;;;;;;;0.30;0.30;;;;;;;4.90;85.67;96496.22;4966955;28;20054;-60
2023/04/06 05:27:55;;;;;;;0.30;0.30;;;;;;;5.20;86.03;96500.25;4967082;28;20058;-59
2023/04/06 05:30:22;;;;;;;0.30;0.30;;;;;;;5.46;83.72;96495.91;4966627;28;20489;-60
2023/04/06 05:32:50;;;;;;;0.30;0.30;;;;;;;5.50;81.98;96501.50;4966594;28;20109;-60
2023/04/06 05:35:17;;;;;;;0.30;0.30;;;;;;;5.47;81.99;96482.97;4966699;28;20062;-60
2023/04/06 05:37:44;;;;;;;0.30;0.30;;;;;;;5.56;82.58;96505.56;4966399;28;20093;-60
2023/04/06 05:40:11;;;;;;;0.32;0.32;;;;;;;5.45;82.62;96488.81;4966130;28;20050;-60
2023/04/06 05:42:42;;;;;;;0.30;0.30;;;;;;;5.73;83.04;96488.75;4965930;28;20567;-59
2023/04/06 05:45:16;;;;;;;0.38;0.38;;;;;;;4.08;81.93;96172.28;4965010;28;20478;-62
2023/04/06 05:47:44;;;;;;;0.30;0.30;;;;;;;5.78;81.13;96426.13;4981013;28;20512;-62
2023/04/06 05:50:12;;;;;;;0.30;0.30;;;;;;;6.01;81.05;96492.25;4982536;28;20047;-68
2023/04/06 05:52:38;;;;;;;0.30;0.30;;;;;;;5.12;78.90;96293.38;4978724;28;20635;-63
2023/04/06 05:55:05;;;;;;;0.30;0.30;;;;;;;6.06;80.31;96453.53;4965880;28;20051;-64
2023/04/06 05:57:34;;;;;;;0.40;0.40;;;;;;;6.26;79.96;96479.94;4964672;28;20551;-62
2023/04/06 06:00:01;;;;;;;0.30;0.30;;;;;;;6.02;79.97;96480.91;4981463;28;20454;-61
2023/04/06 06:02:30;;;;;;;0.30;0.30;;;;;;;6.09;79.17;96411.56;4985183;28;20108;-64
2023/04/06 06:04:57;;;;;;;0.30;0.30;;;;;;;6.41;78.12;96470.06;4984678;28;20054;-63
2023/04/06 06:07:24;;;;;;;0.32;0.32;;;;;;;6.78;76.02;96468.59;4972893;28;20152;-61
2023/04/06 06:09:51;;;;;;;0.30;0.30;;;;;;;5.82;77.07;96354.78;4979979;28;20436;-65
2023/04/06 06:12:18;;;;;;;0.38;0.38;;;;;;;6.67;76.32;96462.81;4978929;28;20383;-60
2023/04/06 06:14:44;;;;;;;0.40;0.40;;;;;;;6.60;77.14;96413.16;4973554;28;20090;-61
2023/04/06 06:17:11;;;;;;;0.30;0.30;;;;;;;7.38;77.25;96454.88;4969806;28;20078;-61
2023/04/06 06:19:37;;;;;;;0.40;0.40;;;;;;;6.09;76.62;96235.63;4977086;28;20648;-62
2023/04/06 06:22:04;;;;;;;0.40;0.40;;;;;;;7.96;74.62;96454.78;4965414;28;20058;-60
2023/04/06 06:24:32;;;;;;;0.40;0.40;;;;;;;7.37;73.33;96373.41;4965428;28;20057;-60
2023/04/06 06:26:58;;;;;;;0.40;0.40;;;;;;;8.16;73.47;96450.78;4965680;28;20055;-61
2023/04/06 06:29:25;;;;;;;0.50;0.50;;;;;;;8.31;72.75;96452.66;4965971;28;20055;-62
2023/04/06 06:31:52;;;;;;;0.40;0.40;;;;;;;7.94;71.76;96371.63;4965786;28;20063;-59
2023/04/06 06:34:18;;;;;;;0.40;0.40;;;;;;;8.73;71.72;96453.28;4964620;28;20583;-59
2023/04/06 06:36:45;;;;;;;0.40;0.40;;;;;;;8.79;69.92;96451.78;4965221;28;20465;-58
2023/04/06 06:39:14;;;;;;;0.40;0.40;;;;;;;8.76;68.16;96449.78;4963770;28;20516;-62
2023/04/06 06:41:41;;;;;;;0.40;0.40;;;;;;;8.35;69.23;96453.47;4965518;28;20652;-62
2023/04/06 06:44:07;;;;;;;0.40;0.40;;;;;;;7.59;71.42;96413.97;4965654;28;20141;-63
2023/04/06 06:46:35;;;;;;;0.50;0.50;;;;;;;8.32;69.58;96455.03;4965307;28;20059;-63
2023/04/06 06:49:02;;;;;;;0.40;0.40;;;;;;;8.49;69.47;96417.81;4964981;28;20054;-59
2023/04/06 06:51:29;;;;;;;0.40;0.40;;;;;;;7.91;68.58;96449.56;4979776;28;20498;-59
2023/04/06 06:53:56;;;;;;;0.40;0.40;;;;;;;8.18;68.79;96456.72;4964783;28;20112;-63
2023/04/06 06:56:22;;;;;;;0.40;0.40;;;;;;;8.25;68.48;96426.53;4964797;28;20165;-62
2023/04/06 06:58:49;;;;;;;0.40;0.40;;;;;;;8.23;67.86;96453.69;4965124;28;20442;-62
2023/04/06 07:01:15;;;;;;;0.40;0.40;;;;;;;8.58;67.42;96460.56;4964872;28;20121;-61
2023/04/06 07:03:43;;;;;;;0.50;0.50;;;;;;;8.51;66.63;96434.81;4965185;28;20053;-59
2023/04/06 07:06:10;;;;;;;0.40;0.40;;;;;;;8.61;66.76;96456.28;4979927;28;20117;-59
2023/04/06 07:08:37;;;;;;;0.40;0.40;;;;;;;8.37;65.28;96418.03;4965274;28;20995;-58
2023/04/06 07:11:04;;;;;;;0.40;0.40;;;;;;;8.64;66.36;96456.31;4963499;28;20054;-62
2023/04/06 07:13:30;;;;;;;0.40;0.40;;;;;;;8.91;66.37;96470.91;4964518;28;20196;-61
2023/04/06 07:15:57;;;;;;;0.40;0.40;;;;;;;9.21;65.82;96452.38;4976312;28;20109;-59
2023/04/06 07:18:25;;;;;;;0.50;0.50;;;;;;;9.76;63.84;96456.97;4972561;28;20046;-60
2023/04/06 07:20:51;;;;;;;0.40;0.40;;;;;;;9.16;61.97;96334.69;4969803;28;20051;-61
2023/04/06 07:23:18;;;;;;;0.50;0.50;;;;;;;10.20;59.97;96452.28;4967900;28;20051;-61
2023/04/06 07:25:45;;;;;;;0.50;0.50;;;;;;;10.34;59.80;96449.63;4964050;28;20055;-60
2023/04/06 07:28:12;;;;;;;0.50;0.50;;;;;;;10.65;58.48;96438.00;4972936;28;20137;-60
2023/04/06 07:30:40;;;;;;;0.50;0.50;;;;;;;10.94;57.60;96452.03;4981273;28;20050;-61
2023/04/06 07:33:06;;;;;;;0.50;0.50;;;;;;;10.88;54.96;96442.47;4962293;28;20503;-59
2023/04/06 07:35:34;;;;;;;0.50;0.50;;;;;;;10.63;53.62;96418.22;4964501;28;20506;-60
2023/04/06 07:38:01;;;;;;;0.50;0.50;;;;;;;10.66;55.28;96442.38;4964265;28;20532;-62
2023/04/06 07:40:28;;;;;;;0.50;0.50;;;;;;;10.86;55.73;96419.94;4970686;28;20082;-63
2023/04/06 07:42:54;;;;;;;0.50;0.50;;;;;;;10.96;54.51;96402.56;4979109;28;20070;-61
2023/04/06 07:45:23;;;;;;;0.50;0.50;;;;;;;11.11;51.78;96418.09;4974628;28;20070;-62
2023/04/06 07:47:50;;;;;;;0.60;0.60;;;;;;;11.22;56.35;96446.66;4969627;28;20129;-62
2023/04/06 07:50:17;;;;;;;0.50;0.50;;;;;;;11.09;55.06;96439.84;4971442;28;20216;-61
2023/04/06 07:52:44;;;;;;;0.50;0.50;;;;;;;10.59;53.25;96361.22;4975568;28;20050;-63
2023/04/06 07:55:11;;;;;;;0.50;0.50;;;;;;;11.23;53.12;96442.69;4961939;28;20055;-59
2023/04/06 07:57:37;;;;;;;0.50;0.50;;;;;;;11.52;52.88;96447.16;4964531;28;20128;-61
2023/04/06 08:00:05;;;;;;;0.52;0.52;;;;;;;11.96;49.72;96450.50;4964047;28;20043;-65
2023/04/06 08:02:32;;;;;;;0.60;0.60;;;;;;;12.05;48.21;96437.03;4977728;28;20501;-63
2023/04/06 08:04:58;;;;;;;0.50;0.50;;;;;;;12.37;47.56;96440.63;4965904;28;20086;-60
2023/04/06 08:07:25;;;;;;;0.57;0.57;;;;;;;12.06;47.53;96399.75;4980057;28;20418;-62
2023/04/06 08:09:52;;;;;;;0.60;0.60;;;;;;;12.41;48.46;96437.84;4967564;28;20054;-63
2023/04/06 08:12:19;;;;;;;0.60;0.60;;;;;;;12.42;48.48;96445.78;4978881;28;20121;-60
2023/04/06 08:14:46;;;;;;;0.60;0.60;;;;;;;11.45;50.15;96438.81;4971812;28;20202;-58
2023/04/06 08:17:12;;;;;;;0.50;0.50;;;;;;;12.09;48.92;96432.28;4986561;28;20054;-63
2023/04/06 08:19:39;;;;;;;0.50;0.50;;;;;;;11.40;48.86;96261.72;4969492;28;20058;-60
2023/04/06 08:22:06;;;;;;;0.60;0.60;;;;;;;12.90;48.49;96416.34;4977174;28;20062;-61
2023/04/06 08:24:33;;;;;;;0.60;0.60;;;;;;;12.81;46.15;96429.06;4972804;28;20059;-60
2023/04/06 08:27:00;;;;;;;0.60;0.60;;;;;;;12.80;47.01;96433.88;4975089;28;20049;-59
2023/04/06 08:29:27;;;;;;;0.60;0.60;;;;;;;12.82;45.84;96400.09;4966801;28;20053;-58
2023/04/06 08:31:54;;;;;;;0.50;0.50;;;;;;;13.44;45.93;96426.94;4986718;28;20073;-60
2023/04/06 08:34:21;;;;;;;0.60;0.60;;;;;;;13.68;45.43;96433.59;4977017;28;20046;-62
2023/04/06 08:36:49;;;;;;;0.60;0.60;;;;;;;13.81;44.28;96428.34;4979693;28;20517;-64
2023/04/06 08:39:16;;;;;;;0.60;0.60;;;;;;;13.44;45.70;96429.72;4974845;28;20046;-61
2023/04/06 08:41:43;;;;;;;0.52;0.52;;;;;;;12.95;45.54;96385.38;4981096;28;20050;-65
2023/04/06 08:44:11;;;;;;;0.50;0.50;;;;;;;11.03;47.05;96353.53;4967056;28;20054;-62
2023/04/06 08:46:38;;;;;;;0.52;0.52;;;;;;;11.77;47.00;96364.84;4967548;28;20533;-57
2023/04/06 08:49:08;;;;;;;0.50;0.50;;;;;;;10.17;49.29;96383.06;4970512;28;20058;-62
2023/04/06 08:51:34;;;;;;;0.50;0.50;;;;;;;10.61;49.47;96358.84;4979147;28;20110;-66
2023/04/06 08:54:01;;;;;;;0.50;0.50;;;;;;;11.78;47.87;96427.44;4981687;28;20054;-56
2023/04/06 08:56:28;;;;;;;0.50;0.50;;;;;;;11.64;47.82;96383.84;4976799;28;20073;-57
2023/04/06 08:58:56;;;;;;;0.50;0.50;;;;;;;11.49;47.30;96414.69;4987062;28;20051;-59
2023/04/06 09:01:27;;;;;;;0.50;0.50;;;;;;;9.45;46.78;96006.88;4971527;28;20053;-62
2023/04/06 09:03:58;;;;;;;0.50;0.50;;;;;;;12.06;47.42;96414.41;4971519;28;20058;-57
2023/04/06 09:06:30;;;;;;;0.60;0.60;;;;;;;12.40;46.33;96381.50;4980242;28;20470;-57
2023/04/06 09:08:57;;;;;;;0.60;0.60;;;;;;;12.76;46.00;96405.25;4966732;28;20061;-57
2023/04/06 09:11:24;;;;;;;0.60;0.60;;;;;;;12.26;45.31;96337.09;4965386;28;20141;-64
2023/04/06 09:13:54;;;;;;;0.57;0.57;;;;;;;12.56;46.63;96389.41;4967188;28;20074;-60
2023/04/06 09:16:21;;;;;;;0.50;0.50;;;;;;;11.96;46.38;96317.28;4971078;28;20074;-64
2023/04/06 09:18:49;;;;;;;0.60;0.60;;;;;;;12.51;46.08;96415.63;4965761;28;20608;-62
2023/04/06 09:21:19;;;;;;;0.60;0.60;;;;;;;12.84;45.43;96373.50;4966301;28;20580;-60
2023/04/06 09:23:59;;;;;;;0.60;0.60;;;;;;;13.50;45.60;96400.28;4968138;28;20576;-60
2023/04/06 09:26:27;;;;;;;0.60;0.60;;;;;;;14.29;44.11;96395.84;4979038;28;20078;-58
2023/04/06 09:28:55;;;;;;;0.60;0.60;;;;;;;14.70;42.96;96393.91;4976008;28;20058;-63
2023/04/06 09:31:26;;;;;;;0.70;0.70;;;;;;;15.40;41.37;96384.78;4966825;28;20274;-61
2023/04/06 09:33:54;;;;;;;0.60;0.60;;;;;;;14.98;41.70;96388.03;4971040;28;20050;-57
2023/04/06 09:36:32;;;;;;;0.70;0.70;;;;;;;14.44;43.89;96391.72;4965699;28;20043;-60
2023/04/06 09:39:00;;;;;;;0.60;0.60;;;;;;;14.87;42.49;96381.78;4965958;28;20055;-59
2023/04/06 09:41:35;;;;;;;0.70;0.70;;;;;;;13.62;42.91;96193.88;4969719;28;20085;-66
2023/04/06 09:44:12;;;;;;;0.60;0.60;;;;;;;14.81;41.19;96355.56;4969922;28;20150;-57
2023/04/06 09:46:40;;;;;;;0.60;0.60;;;;;;;14.50;41.33;96378.94;4965682;28;20587;-58
2023/04/06 09:49:27;;;;;;;0.60;0.60;;;;;;;14.68;42.68;96368.44;4970089;28;20169;-60
2023/04/06 09:51:59;;;;;;;0.63;0.63;;;;;;;13.75;41.36;96187.81;4980325;28;20046;-63
2023/04/06 09:54:29;;;;;;;0.60;0.60;;;;;;;14.01;40.37;96379.28;4983930;28;20094;-60
2023/04/06 09:57:08;;;;;;;0.70;0.70;;;;;;;14.07;40.59;96377.69;4984171;28;20500;-59
2023/04/06 10:00:14;;;;;;;0.60;0.60;;;;;;;13.83;41.91;96384.22;4972390;28;20835;-62
2023/04/06 10:03:01;;;;;;;0.60;0.60;;;;;;;13.85;43.05;96381.81;4965628;28;20521;-62
2023/04/06 10:05:31;;;;;;;0.60;0.60;;;;;;;13.58;42.78;96384.34;4984761;28;20065;-60
2023/04/06 10:08:06;;;;;;;0.60;0.60;;;;;;;13.09;43.34;96367.88;4981530;28;20129;-61
2023/04/06 10:10:32;;;;;;;0.60;0.60;;;;;;;12.84;43.59;96351.25;4985109;28;20050;-64
2023/04/06 10:13:00;;;;;;;0.60;0.60;;;;;;;13.16;43.46;96374.22;4978118;28;20078;-57
2023/04/06 10:15:29;;;;;;;0.55;0.55;;;;;;;13.22;44.19;96385.69;4965958;28;20080;-62
2023/04/06 10:17:58;;;;;;;0.60;0.60;;;;;;;13.45;42.75;96367.31;4963235;28;20566;-60
2023/04/06 10:20:41;;;;;;;0.60;0.60;;;;;;;13.77;41.45;96324.59;4969264;28;20526;-61
2023/04/06 10:23:41;;;;;;;0.70;0.70;;;;;;;13.95;42.09;96375.38;4964604;28;20525;-59
2023/04/06 10:26:13;;;;;;;0.60;0.60;;;;;;;13.51;41.76;96376.03;4974730;28;20105;-62
2023/04/06 10:28:42;;;;;;;0.60;0.60;;;;;;;12.88;42.75;96374.25;4961928;28;20090;-69
2023/04/06 10:31:09;;;;;;;0.60;0.60;;;;;;;13.04;43.79;96366.31;4962485;28;20109;-60
2023/04/06 10:33:36;;;;;;;0.60;0.60;;;;;;;13.04;43.04;96305.13;4969170;28;20226;-61
2023/04/06 10:36:22;;;;;;;0.60;0.60;;;;;;;13.62;42.83;96362.88;4976856;28;20050;-61
2023/04/06 10:38:54;;;;;;;0.60;0.60;;;;;;;13.83;42.10;96356.38;4981028;28;20104;-59
2023/04/06 10:41:21;;;;;;;0.60;0.60;;;;;;;14.12;42.79;96357.72;4969056;28;20050;-61
2023/04/06 10:43:58;;;;;;;0.65;0.65;;;;;;;13.85;41.16;96287.94;4964408;28;20582;-60
2023/04/06 10:46:26;;;;;;;0.60;0.60;;;;;;;13.96;40.64;96333.19;4968501;28;20505;-60
2023/04/06 10:48:53;;;;;;;0.50;0.50;;;;;;;13.81;40.62;96281.63;4973970;28;20077;-59
2023/04/06 10:51:26;;;;;;;0.60;0.60;;;;;;;13.19;40.73;96281.63;4964290;28;20055;-61
2023/04/06 10:53:54;;;;;;;;;;;;;;;13.53;41.43;96348.63;4975048;28;20441;-62
2023/04/06 10:56:23;;;;;;;0.57;0.57;;;;;;;13.47;42.16;96353.78;4965296;28;19957;-62
2023/04/06 10:58:52;;;;;;;0.60;0.60;;;;;;;12.76;42.97;96341.34;4979775;28;20120;-60
2023/04/06 11:01:21;;;;;;;0.60;0.60;;;;;;;13.14;42.47;96348.78;4972694;28;20169;-62
2023/04/06 11:03:51;;;;;;;0.60;0.60;;;;;;;13.31;42.75;96336.78;4978545;28;20047;-59
2023/04/06 11:06:22;;;;;;;0.60;0.60;;;;;;;13.48;42.81;96341.47;4975288;28;20058;-59
2023/04/06 11:08:50;;;;;;;0.60;0.60;;;;;;;13.21;43.35;96347.97;4982865;28;20145;-60
2023/04/06 11:11:19;;;;;;;0.60;0.60;;;;;;;13.62;42.27;96349.72;4971143;28;20059;-59
2023/04/06 11:13:57;;;;;;;0.60;0.60;;;;;;;13.59;41.66;96325.50;4965630;28;20072;-62
2023/04/06 11:16:29;;;;;;;0.50;0.50;;;;;;;13.69;41.95;96324.63;4965725;28;20050;-63
2023/04/06 11:18:58;;;;;;;0.60;0.60;;;;;;;14.04;41.12;96347.84;4964711;28;20164;-58
2023/04/06 11:21:39;;;;;;;0.60;0.60;;;;;;;12.92;43.22;96346.47;4971051;28;20050;-62
2023/04/06 11:24:23;;;;;;;0.60;0.60;;;;;;;12.95;44.01;96351.22;4973771;28;20050;-60
2023/04/06 11:26:54;;;;;;;;;;;;;;;13.05;43.36;96348.44;4964133;28;20058;-56
2023/04/06 11:29:27;;;;;;;0.60;0.60;;;;;;;12.68;44.50;96348.13;4971635;28;20117;-58
2023/04/06 11:31:58;;;;;;;0.60;0.60;;;;;;;13.11;44.29;96355.16;4984116;28;20054;-63
2023/04/06 11:34:26;;;;;;;0.60;0.60;;;;;;;12.30;44.71;96232.34;4984535;28;20116;-64
2023/04/06 11:37:01;;;;;;;0.50;0.50;;;;;;;12.65;45.78;96348.91;4984261;28;20049;-64
2023/04/06 11:39:30;;;;;;;0.50;0.50;;;;;;;12.54;47.86;96337.03;4986147;28;20484;-64
2023/04/06 11:42:04;;;;;;;0.50;0.50;;;;;;;12.67;47.47;96340.97;4988321;28;20113;-64
2023/04/06 11:44:45;;;;;;;0.50;0.50;;;;;;;11.74;48.19;96240.78;4988180;28;20544;-61